Carmichael, CA (95608)

3:33 PM PST on February 09, 2016 (GMT -0800)
Fallen Oaks | | Change Station
CLOSE
Current Station
Personal Weather Station
Location: Carmichael, CA
Elevation: 131 ft
Nearby Weather Stations

Elev 131 ft 38.65 °N, 121.33 °W | Updated 15 seconds ago

Clear
Clear
72.5 °F
Feels Like 77 °F
N
2.9
Wind Variable Wind from WSW
Gusts 4.9 mph

Today
High -- | Low -- °F
--% Chance of Precip.
Yesterday
High -- | Low -- °F
Precip. -- in
Pressure 30.17 in
Visibility 10.0 miles
Clouds Clear
Heat Index 77 °F
Dew Point 52 °F
Humidity 48%
Rainfall 0.00 in
Snow Depth Not available.
7:03 AM 5:36 PM
Waxing Crescent, 3% visible
METAR KMCC 092315Z AUTO 30006KT 10SM CLR 20/11 A3017 RMK AO2
Pressure 30.17 in
Visibility 10.0 miles
Clouds Clear
Heat Index 77 °F
Dew Point 52 °F
Humidity 48%
Rainfall 0.00 in
Snow Depth Not available.
7:03 AM 5:36 PM
Waxing Crescent, 3% visible
METAR KMCC 092315Z AUTO 30006KT 10SM CLR 20/11 A3017 RMK AO2

10-Day Weather Forecast

Almanac

Astronomy

Feb. 09, 2016 Rise Set
Actual Time
Civil Twilight
Nautical Twilight
Astronomical Twilight
Moon
Length of Visible Light
Length of Day
Tomorrow will be .
, % of the Moon is Illuminated

Today's Extremes

State Highs State Lows

Community

WunderPhotos

Upload Photos

1,891,743 photos uploaded!

WunderBlog® & News

Nearby

Air Quality

  Air Quality AQ Index Pollutant
Not available.

Snow Depth

Station Depth Elevation

Earthquake Activity

City Distance Mag. Time & Date
Minimum magnitude displayed is 2.5.

Coastal Water Temperatures

Place Temperature

Stations

Nearby Weather Stations

Station Location Temp. Windchill Dew Point Humidity Wind Precip. Elev Updated Type
                   

Watches & Warnings

There are currently no watches in effect.